Time,TemperatureF,DewpointF,PressureIn,WindDirection,WindDirectionDegrees,WindSpeedMPH,WindSpeedGustMPH,Humidity,HourlyPrecipIn,Conditions,Clouds,dailyrainin,SoftwareType,DateUTC
2013-10-08 00:22:00,46.0,45.0,30.17,NE,50,0.0,-999.0,97,-99.99,,,-99.99,,2013-10-08 05:22:00,
2013-10-08 00:33:00,46.0,45.0,30.17,NE,50,0.0,-999.0,97,-99.99,,,-99.99,,2013-10-08 05:33:00,
2013-10-08 00:53:00,46.0,45.0,30.17,NE,50,0.0,-999.0,97,-99.99,,,-99.99,,2013-10-08 05:53:00,
2013-10-08 08:12:00,40.0,39.0,30.18,NE,50,0.0,-999.0,98,-99.99,,,-99.99,,2013-10-08 13:12:00,
2013-10-08 08:22:00,40.0,39.0,30.18,NE,50,0.0,-999.0,98,-99.99,,,-99.99,,2013-10-08 13:22:00,
2013-10-08 08:42:00,44.0,44.0,30.18,NE,50,0.0,-999.0,99,-99.99,,,-99.99,,2013-10-08 13:42:00,
2013-10-08 08:52:00,46.0,46.0,30.18,NE,50,0.0,-999.0,99,-99.99,,,-99.99,,2013-10-08 13:52:00,
2013-10-08 09:22:00,49.0,49.0,30.18,NE,50,0.0,-999.0,99,-99.99,,,-99.99,,2013-10-08 14:22:00,
2013-10-08 09:42:00,53.0,51.0,30.18,NE,50,0.0,-999.0,94,-99.99,,,-99.99,,2013-10-08 14:42:00,
2013-10-08 09:52:00,55.0,52.0,30.18,NE,50,0.0,-999.0,89,-99.99,,,-99.99,,2013-10-08 14:52:00,
2013-10-08 10:11:00,57.0,52.0,30.18,NE,50,0.0,-999.0,83,-99.99,,,-99.99,,2013-10-08 15:11:00,
2013-10-08 10:22:00,60.0,53.0,30.20,NE,50,0.0,-999.0,78,-99.99,,,-99.99,,2013-10-08 15:22:00,
2013-10-08 10:44:00,62.0,54.0,30.20,SSE,158,1.0,-999.0,74,-99.99,,,-99.99,,2013-10-08 15:44:00,
2013-10-08 10:53:00,64.0,53.0,30.19,ESE,117,3.0,-999.0,68,-99.99,,,-99.99,,2013-10-08 15:53:00,
2013-10-08 11:03:00,64.0,53.0,30.19,ESE,117,3.0,-999.0,68,-99.99,,,-99.99,,2013-10-08 16:03:00,
2013-10-08 11:13:00,64.0,53.0,30.19,ESE,117,3.0,-999.0,68,-99.99,,,-99.99,,2013-10-08 16:13:00,
2013-10-08 11:23:00,64.0,53.0,30.19,ESE,117,3.0,-999.0,68,-99.99,,,-99.99,,2013-10-08 16:23:00,
2013-10-08 11:42:00,67.0,48.0,30.19,SSW,192,6.0,-999.0,51,-99.99,,,-99.99,,2013-10-08 16:42:00,
2013-10-08 11:53:00,67.0,48.0,30.19,SSW,192,6.0,-999.0,51,-99.99,,,-99.99,,2013-10-08 16:53:00,
2013-10-08 12:03:00,67.0,48.0,30.19,SSW,192,6.0,-999.0,51,-99.99,,,-99.99,,2013-10-08 17:03:00,
2013-10-08 12:52:00,69.0,48.0,30.18,SSE,163,7.0,-999.0,47,-99.99,,,-99.99,,2013-10-08 17:52:00,
2013-10-08 13:11:00,70.0,49.0,30.17,SE,131,5.0,-999.0,48,-99.99,,,-99.99,,2013-10-08 18:11:00,
2013-10-08 13:22:00,70.0,49.0,30.17,SE,131,5.0,-999.0,48,-99.99,,,-99.99,,2013-10-08 18:22:00,
2013-10-08 13:42:00,70.0,49.0,30.16,SSE,159,8.0,-999.0,48,-99.99,,,-99.99,,2013-10-08 18:42:00,
2013-10-08 13:53:00,71.0,51.0,30.16,South,179,7.0,-999.0,49,-99.99,,,-99.99,,2013-10-08 18:53:00,
2013-10-08 14:02:00,71.0,51.0,30.16,South,179,7.0,-999.0,49,-99.99,,,-99.99,,2013-10-08 19:02:00,
2013-10-08 14:11:00,71.0,51.0,30.16,South,179,7.0,-999.0,49,-99.99,,,-99.99,,2013-10-08 19:11:00,
2013-10-08 14:21:00,71.0,51.0,30.16,South,179,7.0,-999.0,49,-99.99,,,-99.99,,2013-10-08 19:21:00,
2013-10-08 15:42:00,72.0,51.0,30.13,SSE,158,6.0,-999.0,48,-99.99,,,-99.99,,2013-10-08 20:42:00,
2013-10-08 15:52:00,72.0,51.0,30.12,SSE,155,5.0,-999.0,48,-99.99,,,-99.99,,2013-10-08 20:52:00,
2013-10-08 16:12:00,72.0,51.0,30.12,SSE,159,5.0,-999.0,48,-99.99,,,-99.99,,2013-10-08 21:12:00,
2013-10-08 16:22:00,72.0,52.0,30.11,SSE,156,8.0,-999.0,49,-99.99,,,-99.99,,2013-10-08 21:22:00,
2013-10-08 16:24:00,72.0,52.0,30.12,SSE,165,6.0,-999.0,50,-99.99,,,-99.99,,2013-10-08 21:24:00,
2013-10-08 16:44:00,72.0,53.0,30.11,South,170,3.0,-999.0,51,-99.99,,,-99.99,,2013-10-08 21:44:00,
2013-10-08 16:54:00,72.0,52.0,30.12,SSE,165,6.0,-999.0,50,-99.99,,,-99.99,,2013-10-08 21:54:00,
2013-10-08 17:03:00,72.0,52.0,30.12,SSE,165,6.0,-999.0,50,-99.99,,,-99.99,,2013-10-08 22:03:00,
2013-10-08 17:13:00,72.0,52.0,30.12,SSE,165,6.0,-999.0,50,-99.99,,,-99.99,,2013-10-08 22:13:00,
2013-10-08 20:43:00,56.0,52.0,30.10,SE,142,0.0,-999.0,87,-99.99,,,-99.99,,2013-10-09 01:43:00,
2013-10-08 20:52:00,55.0,52.0,30.09,SE,142,0.0,-999.0,88,-99.99,,,-99.99,,2013-10-09 01:52:00,
2013-10-08 21:23:00,55.0,52.0,30.10,SE,142,0.0,-999.0,89,-99.99,,,-99.99,,2013-10-09 02:23:00,
2013-10-08 21:42:00,54.0,51.0,30.10,SE,142,0.0,-999.0,90,-99.99,,,-99.99,,2013-10-09 02:42:00,
2013-10-08 21:52:00,54.0,51.0,30.10,SE,142,0.0,-999.0,90,-99.99,,,-99.99,,2013-10-09 02:52:00,
2013-10-08 22:02:00,54.0,51.0,30.10,SE,142,0.0,-999.0,90,-99.99,,,-99.99,,2013-10-09 03:02:00,